Latest Coastal Weather Observations for Geraldton Airport

IDW60701

Issued at 10:15 am WST Saturday 19 April 2014 (issued every 10 minutes, with the page automatically refreshed every 10 minutes)

About coastal observations | Map of coastal stations | Coastal observations for WA | Marine services | Other Formats
Station Details ID: 008315 Name: GERALDTON AIRPORT Lat: -28.80 Lon: 114.70 Height: 29.7 m
Data from the previous 72 hours. | See also: Recent months at Geraldton Airport
Date/Time
WST
Temp

°C
Wind Pressure Rain
since 9am
mm
Weather Cloud Vis
km
Sea
Height
m
Swell
Dir
 
Speed
knots
Gust
knots
hPa Trend Height
m
Period
s
Dir
19/10:00am 23.3 S 19 23 1016.4 - 0.0 - Mostly clear 10 - - - -
19/09:30am 23.1 S 19 25 1016.7 - 0.0 - Partly cloudy 10 - - - -
19/09:00am 22.6 SSE 19 23 1016.7 F 0.0 Fine Partly cloudy 25 - - - -
19/08:45am 21.6 SSE 16 24 1016.8 - 0.0 - Partly cloudy 10 - - - -
19/08:30am 20.3 SSE 10 13 1016.9 - 0.0 - Partly cloudy 10 - - - -
19/08:00am 18.7 SSE 8 11 1016.7 - 0.0 - Partly cloudy 10 - - - -
19/07:30am 15.0 SE 4 5 1016.3 - 0.0 - Mostly clear 10 - - - -
19/07:00am 13.7 SSE 5 6 1016.2 - 0.0 - Mostly clear 10 - - - -
19/06:30am 13.7 SE 4 5 1016.0 - 0.0 - Mostly clear 10 - - - -
19/06:00am 14.2 SE 5 6 1015.9 F 0.0 Fine Mostly clear 30 - - - -
19/05:30am 14.2 SE 4 4 1015.8 - 0.0 - - 10 - - - -
19/05:00am 14.4 SE 4 5 1015.8 - 0.0 - - 10 - - - -
19/04:30am 14.8 SSE 6 7 1015.6 - 0.0 - - 10 - - - -
19/04:00am 14.3 S 4 5 1015.5 - 0.0 - - 10 - - - -
19/03:30am 15.0 SE 4 5 1015.6 - 0.0 - - 10 - - - -
19/03:00am 15.2 SSE 5 5 1015.7 - 0.0 - - 10 - - - -
19/02:30am 16.0 SE 5 6 1016.0 - 0.0 - - 10 - - - -
19/02:00am 16.1 SE 4 6 1016.2 - 0.0 - - 10 - - - -
19/01:30am 16.7 SE 4 5 1016.3 - 0.0 - - 10 - - - -
19/01:00am 16.7 CALM 0 0 1016.5 - 0.0 - - 10 - - - -
19/12:30am 18.0 SE 6 7 1016.3 - 0.0 - - 10 - - - -
19/12:00am 19.8 SSE 8 10 1016.4 - 0.0 - - 10 - - - -
 
Date/Time
WST
Temp

°C
Wind Pressure Rain
since 9am
mm
Weather Cloud Vis
km
Sea
Height
m
Swell
Dir
 
Speed
knots
Gust
knots
hPa Trend Height
m
Period
s
Dir
18/11:30pm 20.8 SSE 11 13 1016.9 - 0.0 - - 10 - - - -
18/11:00pm 21.3 S 11 15 1017.2 - 0.0 - - 10 - - - -
18/10:30pm 20.9 S 9 13 1017.2 - 0.0 - - 10 - - - -
18/10:00pm 21.2 S 10 13 1017.2 - 0.0 - - 10 - - - -
18/09:30pm 21.1 S 10 14 1017.2 - 0.0 - - 10 - - - -
18/09:00pm 21.1 SSE 9 12 1016.8 F 0.0 Haze Partly cloudy 20 - - - -
18/08:30pm 21.0 S 7 9 1016.9 - 0.0 - - 10 - - - -
18/08:00pm 21.4 S 9 11 1016.7 - 0.0 - - 10 - - - -
18/07:30pm 21.7 S 10 12 1016.5 - 0.0 - - 10 - - - -
18/07:00pm 22.0 SSE 9 12 1016.4 - 0.0 - - 10 - - - -
18/06:30pm 22.1 S 9 11 1016.3 - 0.0 - - 10 - - - -
18/06:00pm 22.9 S 12 15 1015.8 R 0.0 Haze Partly cloudy 25 - - - -
18/05:30pm 24.0 S 12 15 1015.6 - 0.0 - - 10 - - - -
18/05:00pm 24.8 S 16 21 1015.5 - 0.0 - - 10 - - - -
18/04:30pm 26.5 S 16 21 1015.0 - 0.0 - - 10 - - - -
18/04:00pm 26.8 S 15 18 1015.0 - 0.0 - - 10 - - - -
18/03:30pm 27.4 S 17 21 1014.9 - 0.0 - - 10 - - - -
18/03:00pm 28.2 S 15 19 1014.8 R 0.0 Fine Mostly clear 30 - - - -
18/02:30pm 28.8 S 15 19 1014.8 - 0.0 - - 10 - - - -
18/02:00pm 27.9 SSW 15 19 1014.9 - 0.0 - - 10 - - - -
18/01:30pm 28.9 S 15 19 1014.9 - 0.0 - - 10 - - - -
18/01:00pm 28.7 SSW 15 20 1015.2 - 0.0 - - 10 - - - -
18/12:30pm 30.2 SSW 14 19 1015.5 - 0.0 - - 10 - - - -
18/12:00pm 32.8 NNW 5 12 1015.9 F 0.0 Fine Mostly cloudy 35 - - - -
18/11:30am 33.2 N 7 11 1016.3 - 0.0 - - 10 - - - -
18/11:00am 32.5 NE 13 17 1016.6 - 0.0 - - 10 - - - -
18/10:30am 32.3 ENE 15 18 1016.8 - 0.0 - - 10 - - - -
18/10:00am 30.3 E 12 16 1017.3 - 0.0 - - 10 - - - -
18/09:30am 26.2 ESE 7 9 1017.7 - 0.0 - - 10 - - - -
18/09:00am 24.8 E 9 11 1018.1 F 0.0 Haze Mostly cloudy 25 - - - -
18/08:30am 22.8 ESE 9 11 1018.3 - 0.0 - - 10 - - - -
18/08:00am 21.0 SE 8 10 1018.4 - 0.0 - - 10 - - - -
18/07:30am 16.4 SE 4 7 1018.3 - 0.0 - - 10 - - - -
18/07:00am 14.2 SE 7 9 1018.0 - 0.0 - - 10 - - - -
18/06:30am 14.1 S 7 8 1017.8 - 0.0 - - 10 - - - -
18/06:00am 14.3 S 8 9 1017.9 F 0.0 Fine Mostly cloudy 30 - - - -
18/05:30am 13.5 SE 5 7 1018.0 - 0.0 - - 10 - - - -
18/05:00am 13.0 SE 6 8 1018.0 - 0.0 - - 10 - - - -
18/04:30am 13.6 SSE 8 9 1018.0 - 0.0 - - 10 - - - -
18/04:00am 13.6 SE 7 8 1018.1 - 0.0 - - 10 - - - -
18/03:30am 14.1 SSE 9 10 1018.1 - 0.0 - - 10 - - - -
18/03:00am 14.2 SE 6 8 1018.4 - 0.0 - - 10 - - - -
18/02:30am 15.1 SE 7 9 1018.4 - 0.0 - - 10 - - - -
18/02:00am 15.4 SE 8 10 1018.6 - 0.0 - - 10 - - - -
18/01:30am 15.8 SSE 8 9 1018.6 - 0.0 - - 10 - - - -
18/01:00am 16.5 SE 9 11 1018.8 - 0.0 - - 10 - - - -
18/12:30am 16.6 SE 9 11 1019.0 - 0.0 - - 10 - - - -
18/12:00am 17.5 SE 10 12 1019.1 - 0.0 - - 10 - - - -
 
Date/Time
WST
Temp

°C
Wind Pressure Rain
since 9am
mm
Weather Cloud Vis
km
Sea
Height
m
Swell
Dir
 
Speed
knots
Gust
knots
hPa Trend Height
m
Period
s
Dir
17/11:30pm 17.6 SSE 8 11 1019.3 - 0.0 - - 10 - - - -
17/11:00pm 18.0 SE 9 11 1019.6 - 0.0 - - 10 - - - -
17/10:30pm 18.6 SE 8 11 1019.6 - 0.0 - - 10 - - - -
17/10:00pm 20.0 SSE 13 17 1019.6 - 0.0 - - 10 - - - -
17/09:30pm 20.5 SSE 13 16 1019.7 - 0.0 - - 10 - - - -
17/09:00pm 20.9 S 14 18 1019.6 F 0.0 Haze Mostly cloudy 20 - - - -
17/08:30pm 20.9 SSE 14 18 1019.6 - 0.0 - - 10 - - - -
17/08:00pm 20.9 S 14 17 1019.6 - 0.0 - - 10 - - - -
17/07:30pm 20.9 SSE 12 17 1019.5 - 0.0 - - 10 - - - -
17/07:00pm 21.1 S 13 17 1019.3 - 0.0 - - 10 - - - -
17/06:30pm 21.3 S 15 19 1019.2 - 0.0 - - 10 - - - -
17/06:00pm 21.7 S 17 25 1018.8 S 0.0 Fine Partly cloudy 30 - - - -
17/05:30pm 22.3 S 17 23 1018.6 - 0.0 - - 10 - - - -
17/05:00pm 23.2 S 18 23 1018.4 - 0.0 - - 10 - - - -
17/04:30pm 23.7 S 18 22 1018.2 - 0.0 - - 10 - - - -
17/04:00pm 24.4 S 19 25 1018.1 - 0.0 - - 10 - - - -
17/03:30pm 24.6 S 19 24 1018.1 - 0.0 - - 10 - - - -
17/03:00pm 25.0 S 17 21 1018.0 F 0.0 Fine Mostly cloudy 30 - - - -
17/02:30pm 25.6 S 17 21 1017.9 - 0.0 - - 10 - - - -
17/02:00pm 25.5 S 16 23 1017.9 - 0.0 - - 10 - - - -
17/01:30pm 25.3 S 16 21 1018.2 - 0.0 - - 10 - - - -
17/01:00pm 24.7 S 16 20 1018.5 - 0.0 - - 10 - - - -
17/12:30pm 25.6 S 15 20 1019.1 - 0.0 - - 10 - - - -
17/12:00pm 25.2 S 13 18 1019.6 S 0.0 Fine Mostly cloudy 30 - - - -
17/11:30am 24.4 S 11 17 1019.9 - 0.0 - - 10 - - - -
17/11:00am 24.3 SSE 15 20 1020.3 - 0.0 - - 10 - - - -
17/10:30am 23.1 SSE 15 20 1020.5 - 0.0 - Mostly clear 10 - - - -
17/10:00am 21.9 SSE 16 20 1020.8 - 0.0 - Mostly clear 10 - - - -
17/09:30am 20.8 SE 16 21 1021.0 - 0.0 - Mostly clear 10 - - - -
17/09:00am 19.1 SE 16 20 1021.1 R 0.0 Fine Mostly cloudy 30 - - - -
17/08:30am 17.9 SE 12 16 1020.9 - 0.0 - - 10 - - - -
17/08:00am 15.8 SE 10 14 1020.8 - 0.0 - - 10 - - - -
17/07:30am 14.1 SSE 8 9 1020.5 - 0.0 - - 10 - - - -
17/07:00am 13.3 SSE 7 9 1020.2 - 0.0 - - 10 - - - -
17/06:30am 13.3 SE 7 8 1020.2 - 0.0 - - 10 - - - -
17/06:00am 14.0 SE 8 10 1020.0 R 0.0 Smoke Clear 20 - - - -
17/05:30am 14.2 SE 9 11 1019.8 - 0.0 - - 10 - - - -
17/05:00am 14.2 SE 8 10 1019.7 - 0.0 - - 10 - - - -
17/04:30am 14.1 SSE 8 9 1019.5 - 0.0 - - 10 - - - -
17/04:00am 13.9 SE 6 7 1019.3 - 0.0 - - 10 - - - -
17/03:30am 14.3 SE 6 7 1019.1 - 0.0 - - 10 - - - -
17/03:00am 14.5 SE 6 8 1019.2 - 0.0 - - 10 - - - -
17/02:30am 15.0 SE 8 10 1019.2 - 0.0 - - 10 - - - -
17/02:00am 15.9 SE 10 14 1019.1 - 0.0 - - 10 - - - -
17/01:30am 16.0 SE 9 12 1019.0 - 0.0 - - 10 - - - -
17/01:00am 16.6 SE 8 11 1019.1 - 0.0 - - 10 - - - -
17/12:30am 17.1 SE 9 11 1019.0 - 0.0 - - 10 - - - -
17/12:00am 17.2 SE 9 11 1019.0 - 0.0 - - 10 - - - -
 
Date/Time
WST
Temp

°C
Wind Pressure Rain
since 9am
mm
Weather Cloud Vis
km
Sea
Height
m
Swell
Dir
 
Speed
knots
Gust
knots
hPa Trend Height
m
Period
s
Dir
16/11:30pm 17.6 SE 7 9 1019.1 - 0.0 - - 10 - - - -
16/11:00pm 17.9 SE 8 9 1019.3 - 0.0 - - 10 - - - -
16/10:30pm 19.3 SSE 10 13 1019.3 - 0.0 - - 10 - - - -
16/10:00pm 19.8 SSE 11 14 1019.1 - 0.0 - - 10 - - - -
16/09:30pm 20.2 SSE 13 17 1019.1 - 0.0 - - 10 - - - -
16/09:00pm 20.4 S 12 15 1019.1 F 0.0 Haze Mostly clear 18 - - - -
16/08:30pm 20.5 S 12 16 1019.0 - 0.0 - - 10 - - - -
16/08:00pm 20.6 S 13 17 1018.9 - 0.0 - - 10 - - - -
16/07:30pm 21.0 S 12 16 1018.9 - 0.0 - - 10 - - - -
16/07:00pm 21.2 S 12 15 1018.7 - 0.0 - - 10 - - - -
16/06:30pm 21.6 S 14 18 1018.4 - 0.0 - - 10 - - - -
16/06:00pm 22.2 S 14 19 1018.3 F 0.0 Fine Partly cloudy 30 - - - -
16/05:30pm 23.1 S 17 20 1018.1 - 0.0 - - 10 - - - -
16/05:00pm 24.1 S 16 20 1018.0 - 0.0 - - 10 - - - -
16/04:30pm 24.1 S 16 20 1018.0 - 0.0 - - 10 - - - -
16/04:00pm 24.8 S 17 21 1017.9 - 0.0 - - 10 - - - -
16/03:30pm 24.9 S 16 21 1017.8 - 0.0 - - 10 - - - -
16/03:00pm 25.1 S 16 19 1017.9 S 0.0 Smoke Mostly clear 30 - - - -
16/02:30pm 25.5 S 15 19 1017.8 - 0.0 - - 10 - - - -
16/02:00pm 26.5 S 14 19 1017.9 - 0.0 - - 10 - - - -
16/01:30pm 26.3 S 13 17 1018.1 - 0.0 - - 10 - - - -
16/01:00pm 25.5 S 13 17 1018.5 - 0.0 - - 10 - - - -
16/12:30pm 26.3 S 12 16 1018.9 - 0.0 - - 10 - - - -
16/12:00pm 26.2 S 11 14 1019.4 F 0.0 Smoke Mostly clear 25 - - - -
16/11:30am 26.2 SSE 7 11 1020.1 - 0.0 - Mostly clear 8 - - - -
16/11:00am 24.8 SE 7 10 1020.6 - 0.0 Smoke Mostly clear 4 - - - -
16/10:30am 23.3 SE 6 10 1021.0 - 0.0 - - 10 - - - -

Other Formats:

Comma delimited format used in spreadsheet applications
http://www.bom.gov.au/fwo/IDW60701/IDW60701.94403.axf

JavaScript Object Notation format (JSON) in row-major order
http://www.bom.gov.au/fwo/IDW60701/IDW60701.94403.json